createdAt,value
2023-01-09T00:01:29.939Z,7.40
2023-01-09T00:03:58.762Z,7.03
2023-01-09T00:06:27.208Z,6.73
2023-01-09T00:08:55.900Z,7.07
2023-01-09T00:11:24.649Z,7.50
2023-01-09T00:13:54.548Z,6.93
2023-01-09T00:16:23.045Z,6.83
2023-01-09T00:18:53.302Z,6.93
2023-01-09T00:21:21.986Z,7.53
2023-01-09T00:23:50.789Z,6.33
2023-01-09T00:26:20.883Z,6.20
2023-01-09T00:28:50.949Z,7.27
2023-01-09T00:31:21.017Z,6.83
2023-01-09T00:33:54.301Z,6.93
2023-01-09T00:36:22.835Z,7.60
2023-01-09T00:38:51.540Z,6.90
2023-01-09T00:41:23.399Z,7.30
2023-01-09T00:43:54.413Z,7.43
2023-01-09T00:46:28.138Z,7.07
2023-01-09T00:48:56.866Z,7.43
2023-01-09T00:51:25.518Z,7.30
2023-01-09T00:53:54.275Z,7.83
2023-01-09T00:56:25.816Z,7.77
2023-01-09T00:58:54.840Z,6.43
2023-01-09T01:01:25.527Z,6.73
2023-01-09T01:03:54.682Z,7.87
2023-01-09T01:06:41.667Z,7.90
2023-01-09T01:09:10.180Z,7.53
2023-01-09T01:11:38.669Z,7.20
2023-01-09T01:14:07.231Z,7.93
2023-01-09T01:16:37.095Z,8.20
2023-01-09T01:19:05.488Z,8.70
2023-01-09T01:21:34.061Z,8.83
2023-01-09T01:24:02.517Z,8.87
2023-01-09T01:26:31.007Z,8.70
2023-01-09T01:29:00.379Z,8.70
2023-01-09T01:31:28.920Z,8.97
2023-01-09T01:33:59.361Z,8.73
2023-01-09T01:36:28.164Z,8.83
2023-01-09T01:38:56.671Z,8.60
2023-01-09T01:41:30.372Z,9.17
2023-01-09T01:44:00.664Z,8.93
2023-01-09T01:46:29.859Z,9.30
2023-01-09T01:49:03.153Z,8.87
2023-01-09T01:51:33.491Z,9.60
2023-01-09T01:54:05.305Z,9.00
2023-01-09T01:56:37.943Z,9.07
2023-01-09T01:59:10.460Z,9.07
2023-01-09T02:01:41.231Z,9.30
2023-01-09T02:04:11.483Z,8.70
2023-01-09T02:06:40.643Z,9.30
2023-01-09T02:09:10.147Z,8.30
2023-01-09T02:11:38.614Z,7.97
2023-01-09T02:14:07.118Z,8.47
2023-01-09T02:16:42.852Z,8.90
2023-01-09T02:19:22.640Z,8.23
2023-01-09T02:21:56.959Z,8.53
2023-01-09T02:25:00.568Z,8.97
2023-01-09T02:28:04.644Z,8.60
2023-01-09T02:30:41.679Z,9.23
2023-01-09T02:33:29.086Z,8.57
2023-01-09T02:36:13.555Z,8.23
2023-01-09T02:38:49.775Z,8.70
2023-01-09T02:41:21.974Z,7.73
2023-01-09T02:44:16.547Z,9.30
2023-01-09T02:46:46.351Z,8.90
2023-01-09T02:49:18.539Z,9.10
2023-01-09T02:51:52.947Z,9.00
2023-01-09T02:54:34.137Z,9.93
2023-01-09T02:57:29.087Z,9.30
2023-01-09T03:00:09.183Z,9.43
2023-01-09T03:02:47.585Z,9.60
2023-01-09T03:05:22.412Z,9.67
2023-01-09T03:07:57.191Z,9.77
2023-01-09T03:10:29.232Z,9.93
2023-01-09T03:12:59.159Z,9.87
2023-01-09T03:15:30.355Z,10.90
2023-01-09T03:18:00.393Z,10.83
2023-01-09T03:20:28.951Z,10.03
2023-01-09T03:22:58.309Z,10.07
2023-01-09T03:25:29.211Z,10.23
2023-01-09T03:27:59.257Z,10.43
2023-01-09T03:30:29.750Z,11.10
2023-01-09T03:32:59.711Z,11.23
2023-01-09T03:35:28.480Z,10.93
2023-01-09T03:37:59.144Z,10.73
2023-01-09T03:40:27.599Z,10.60
2023-01-09T03:42:56.158Z,9.97
2023-01-09T03:45:24.841Z,10.27
2023-01-09T03:47:53.260Z,11.43
2023-01-09T03:50:23.000Z,11.23
2023-01-09T03:52:51.331Z,13.00
2023-01-09T03:55:19.739Z,10.60
2023-01-09T03:57:48.123Z,11.23
2023-01-09T04:00:17.116Z,11.33
2023-01-09T04:02:45.476Z,12.23
2023-01-09T04:05:13.907Z,11.13
2023-01-09T04:07:43.690Z,12.40
2023-01-09T04:10:13.106Z,11.50
2023-01-09T04:12:41.711Z,12.10
2023-01-09T04:15:10.916Z,12.03
2023-01-09T04:17:39.390Z,11.40
2023-01-09T04:20:08.789Z,11.77
2023-01-09T04:22:37.321Z,11.03
2023-01-09T04:25:08.385Z,10.83
2023-01-09T04:27:36.736Z,11.57
2023-01-09T04:30:05.791Z,11.87
2023-01-09T04:32:34.229Z,11.77
2023-01-09T04:35:02.637Z,11.13
2023-01-09T04:37:31.344Z,10.37
2023-01-09T04:39:59.666Z,11.07
2023-01-09T04:42:29.380Z,11.83
2023-01-09T04:44:57.695Z,11.13
2023-01-09T04:47:26.221Z,10.50
2023-01-09T04:49:54.694Z,12.13
2023-01-09T04:52:23.045Z,10.47
2023-01-09T04:54:51.704Z,11.27
2023-01-09T04:57:20.055Z,10.60
2023-01-09T04:59:50.382Z,10.00
2023-01-09T05:02:19.644Z,10.13
2023-01-09T05:04:48.146Z,10.70
2023-01-09T05:07:16.611Z,11.07
2023-01-09T05:09:44.970Z,11.20
2023-01-09T05:12:13.520Z,10.50
2023-01-09T05:14:41.945Z,10.80
2023-01-09T05:17:11.686Z,10.30
2023-01-09T05:19:40.152Z,11.10
2023-01-09T05:22:08.453Z,11.47
2023-01-09T05:24:36.806Z,11.33
2023-01-09T05:27:05.160Z,12.17
2023-01-09T05:29:33.557Z,11.03
2023-01-09T05:32:01.864Z,11.77
2023-01-09T05:34:31.669Z,12.37
2023-01-09T05:37:00.067Z,12.47
2023-01-09T05:39:28.422Z,12.27
2023-01-09T05:41:56.693Z,11.00
2023-01-09T05:44:25.143Z,11.60
2023-01-09T05:46:53.452Z,12.07
2023-01-09T05:49:21.831Z,11.30
2023-01-09T05:51:51.633Z,11.80
2023-01-09T05:54:20.100Z,10.63
2023-01-09T05:56:48.443Z,12.10
2023-01-09T05:59:16.876Z,11.03
2023-01-09T06:01:45.516Z,12.00
2023-01-09T06:04:13.966Z,11.80
2023-01-09T06:06:42.415Z,11.57
2023-01-09T06:09:12.462Z,11.23
2023-01-09T06:11:40.847Z,11.50
2023-01-09T06:14:09.430Z,11.83
2023-01-09T06:16:37.791Z,11.47
2023-01-09T06:19:06.373Z,11.13
2023-01-09T06:21:35.138Z,11.03
2023-01-09T06:24:03.618Z,11.37
2023-01-09T06:26:33.745Z,10.73
2023-01-09T06:29:02.168Z,11.27
2023-01-09T06:31:30.653Z,10.60
2023-01-09T06:33:59.075Z,12.50
2023-01-09T06:36:27.599Z,11.10
2023-01-09T06:38:56.224Z,13.07
2023-01-09T06:41:24.971Z,10.33
2023-01-09T06:43:55.061Z,11.30
2023-01-09T06:46:23.545Z,10.63
2023-01-09T06:48:52.256Z,11.07
2023-01-09T06:51:20.858Z,10.50
2023-01-09T06:53:50.425Z,10.80
2023-01-09T06:56:20.061Z,10.47
2023-01-09T06:58:48.427Z,11.17
2023-01-09T07:01:18.436Z,10.47
2023-01-09T07:03:47.706Z,11.23
2023-01-09T07:06:16.212Z,11.70
2023-01-09T07:08:45.297Z,11.80
2023-01-09T07:11:15.126Z,11.47
2023-01-09T07:13:44.005Z,11.30
2023-01-09T07:16:12.533Z,12.87
2023-01-09T07:18:42.382Z,11.30
2023-01-09T07:21:10.798Z,13.40
2023-01-09T07:23:39.321Z,14.87
2023-01-09T07:26:07.855Z,12.67
2023-01-09T07:28:36.278Z,12.87
2023-01-09T07:31:07.468Z,13.33
2023-01-09T07:33:36.177Z,13.00
2023-01-09T07:36:06.521Z,13.23
2023-01-09T07:38:37.374Z,14.60
2023-01-09T07:41:06.033Z,13.27
2023-01-09T07:43:34.645Z,13.33
2023-01-09T07:46:03.103Z,13.93
2023-01-09T07:48:31.367Z,14.00
2023-01-09T07:50:59.942Z,13.50
2023-01-09T07:53:29.773Z,14.30
2023-01-09T07:55:58.122Z,12.70
2023-01-09T07:58:26.528Z,15.67
2023-01-09T08:00:54.973Z,13.47
2023-01-09T08:03:23.396Z,13.53
2023-01-09T08:05:52.150Z,14.10
2023-01-09T08:08:20.479Z,14.53
2023-01-09T08:10:50.482Z,15.17
2023-01-09T08:13:19.050Z,14.87
2023-01-09T08:15:47.743Z,14.20
2023-01-09T08:18:16.318Z,13.33
2023-01-09T08:20:44.668Z,16.20
2023-01-09T08:23:12.962Z,14.80
2023-01-09T08:25:41.705Z,14.03
2023-01-09T08:28:11.530Z,15.73
2023-01-09T08:30:39.966Z,15.57
2023-01-09T08:33:08.969Z,14.27
2023-01-09T08:35:38.171Z,14.73
2023-01-09T08:38:06.973Z,14.13
2023-01-09T08:40:35.299Z,15.37
2023-01-09T08:43:21.642Z,15.97
2023-01-09T08:46:08.917Z,15.40
2023-01-09T08:48:37.555Z,15.00
2023-01-09T08:51:06.003Z,14.17
2023-01-09T08:53:34.811Z,15.43
2023-01-09T08:56:04.036Z,15.23
2023-01-09T08:58:32.942Z,14.50
2023-01-09T09:01:06.802Z,13.80
2023-01-09T09:03:35.280Z,13.47
2023-01-09T09:06:04.044Z,13.00
2023-01-09T09:08:32.514Z,13.10
2023-01-09T09:11:01.511Z,14.20
2023-01-09T09:13:30.533Z,16.13
2023-01-09T09:15:58.920Z,12.53
2023-01-09T09:18:28.942Z,11.70
2023-01-09T09:20:57.754Z,10.87
2023-01-09T09:23:26.176Z,11.40
2023-01-09T09:25:54.567Z,10.53
2023-01-09T09:28:22.861Z,10.77
2023-01-09T09:30:51.211Z,9.93
2023-01-09T09:33:19.614Z,10.40
2023-01-09T09:35:49.306Z,9.57
2023-01-09T09:38:17.715Z,10.30
2023-01-09T09:40:58.628Z,8.93
2023-01-09T09:43:57.829Z,9.53
2023-01-09T09:46:34.608Z,9.03
2023-01-09T09:49:09.995Z,8.37
2023-01-09T09:51:56.979Z,9.27
2023-01-09T09:54:28.929Z,8.33
2023-01-09T09:56:59.500Z,8.83
2023-01-09T09:59:29.418Z,10.23
2023-01-09T10:02:00.406Z,9.07
2023-01-09T10:04:32.216Z,9.07
2023-01-09T10:07:06.159Z,8.80
2023-01-09T10:09:42.715Z,9.03
2023-01-09T10:12:22.298Z,8.07
2023-01-09T10:14:51.009Z,8.73
2023-01-09T10:17:32.108Z,7.83
2023-01-09T10:20:40.088Z,8.10
2023-01-09T10:23:36.051Z,14.40
2023-01-09T10:26:10.263Z,13.90
2023-01-09T10:28:56.321Z,7.73
2023-01-09T10:31:32.258Z,8.37
2023-01-09T10:34:10.104Z,7.97
2023-01-09T10:37:00.128Z,7.10
2023-01-09T10:39:35.293Z,6.23
2023-01-09T10:42:07.709Z,7.67
2023-01-09T10:44:38.919Z,5.77
2023-01-09T10:47:12.337Z,6.07
2023-01-09T10:49:41.265Z,8.30
2023-01-09T10:52:16.996Z,6.77
2023-01-09T10:54:54.039Z,5.37
2023-01-09T10:57:39.117Z,6.17
2023-01-09T11:00:14.972Z,6.33
2023-01-09T11:02:43.780Z,6.80
2023-01-09T11:05:17.954Z,5.63
2023-01-09T11:07:49.266Z,6.80
2023-01-09T11:10:19.172Z,7.07
2023-01-09T11:12:48.149Z,8.30
2023-01-09T11:15:29.353Z,4.70
2023-01-09T11:18:19.160Z,4.97
2023-01-09T11:20:47.590Z,6.20
2023-01-09T11:23:30.430Z,5.47
2023-01-09T11:26:02.397Z,6.43
2023-01-09T11:28:31.119Z,4.57
2023-01-09T11:31:03.567Z,4.17
2023-01-09T11:33:35.596Z,5.53
2023-01-09T11:36:08.016Z,5.50
2023-01-09T11:38:49.953Z,5.97
2023-01-09T11:41:22.029Z,7.40
2023-01-09T11:43:52.059Z,3.83
2023-01-09T11:46:37.325Z,3.07
2023-01-09T11:49:07.441Z,2.97
2023-01-09T11:51:36.923Z,2.23
2023-01-09T11:54:23.754Z,2.50
2023-01-09T11:56:53.867Z,2.50
2023-01-09T11:59:24.576Z,2.57
2023-01-09T12:02:20.520Z,3.17
2023-01-09T12:04:52.831Z,2.77
2023-01-09T12:07:38.918Z,2.00
2023-01-09T12:10:21.181Z,2.23
2023-01-09T12:12:56.684Z,2.90
2023-01-09T12:15:28.591Z,2.30
2023-01-09T12:18:30.346Z,2.20
2023-01-09T12:21:08.469Z,1.90
2023-01-09T12:23:51.264Z,1.87
2023-01-09T12:26:23.477Z,2.00
2023-01-09T12:29:19.336Z,2.17
2023-01-09T12:32:04.212Z,2.23
2023-01-09T12:34:51.575Z,2.40
2023-01-09T12:37:37.557Z,1.90
2023-01-09T12:40:18.678Z,2.20
2023-01-09T12:42:54.304Z,2.47
2023-01-09T12:45:35.286Z,2.33
2023-01-09T12:48:11.433Z,2.43
2023-01-09T12:50:57.545Z,2.63
2023-01-09T12:53:28.284Z,2.80
2023-01-09T12:56:01.445Z,3.27
2023-01-09T12:58:36.059Z,3.63
2023-01-09T13:01:07.432Z,3.43
2023-01-09T13:03:38.588Z,4.20
2023-01-09T13:06:08.481Z,4.63
2023-01-09T13:08:40.743Z,5.80
2023-01-09T13:11:19.960Z,5.00
2023-01-09T13:13:51.318Z,6.90
2023-01-09T13:16:23.877Z,8.00
2023-01-09T13:18:56.074Z,7.50
2023-01-09T13:21:24.461Z,5.43
2023-01-09T13:23:56.705Z,5.13
2023-01-09T13:26:28.955Z,4.20
2023-01-09T13:29:00.956Z,4.13
2023-01-09T13:31:45.736Z,3.93
2023-01-09T13:34:21.856Z,3.80
2023-01-09T13:36:52.619Z,3.77
2023-01-09T13:39:22.864Z,3.40
2023-01-09T13:42:12.355Z,3.33
2023-01-09T13:44:41.005Z,3.37
2023-01-09T13:47:20.425Z,3.37
2023-01-09T13:50:26.639Z,4.60
2023-01-09T13:52:55.205Z,4.93
2023-01-09T13:55:35.888Z,5.20
2023-01-09T13:58:27.264Z,5.57
2023-01-09T14:01:01.757Z,5.30
2023-01-09T14:03:34.601Z,5.87
2023-01-09T14:06:24.342Z,6.20
2023-01-09T14:09:14.149Z,7.03
2023-01-09T14:11:42.603Z,6.60
2023-01-09T14:14:29.082Z,6.50
2023-01-09T14:16:59.178Z,6.00
2023-01-09T14:19:37.400Z,6.33
2023-01-09T14:22:07.085Z,6.33
2023-01-09T14:24:42.004Z,6.40
2023-01-09T14:27:43.461Z,5.67
2023-01-09T14:30:29.311Z,5.93
2023-01-09T14:32:59.277Z,5.37
2023-01-09T14:35:34.101Z,5.93
2023-01-09T14:38:29.129Z,5.60
2023-01-09T14:41:02.403Z,5.87
2023-01-09T14:43:53.779Z,5.53
2023-01-09T14:46:22.767Z,5.43
2023-01-09T14:49:01.133Z,5.67
2023-01-09T14:51:33.163Z,6.40
2023-01-09T14:54:02.284Z,6.20
2023-01-09T14:56:33.429Z,5.90
2023-01-09T14:59:12.825Z,5.53
2023-01-09T15:01:43.264Z,5.43
2023-01-09T15:04:23.341Z,6.27
2023-01-09T15:06:53.134Z,5.50
2023-01-09T15:09:25.734Z,7.77
2023-01-09T15:11:55.165Z,5.80
2023-01-09T15:14:31.509Z,5.70
2023-01-09T15:17:00.635Z,5.80
2023-01-09T15:19:29.940Z,5.60
2023-01-09T15:22:01.758Z,5.70
2023-01-09T15:24:33.516Z,5.60
2023-01-09T15:27:03.994Z,5.20
2023-01-09T15:29:32.539Z,5.13
2023-01-09T15:32:05.443Z,5.00
2023-01-09T15:34:34.203Z,4.60
2023-01-09T15:37:04.125Z,4.53
2023-01-09T15:39:37.106Z,4.23
2023-01-09T15:42:32.218Z,3.97
2023-01-09T15:45:01.407Z,3.70
2023-01-09T15:47:33.907Z,4.10
2023-01-09T15:50:03.170Z,4.50
2023-01-09T15:52:33.021Z,4.17
2023-01-09T15:55:01.275Z,4.47
2023-01-09T15:57:33.284Z,4.27
2023-01-09T16:00:34.506Z,5.17
2023-01-09T16:03:10.815Z,3.77
2023-01-09T16:05:43.818Z,5.00
2023-01-09T16:08:25.207Z,4.47
2023-01-09T16:10:55.629Z,5.10
2023-01-09T16:13:25.745Z,5.10
2023-01-09T16:15:54.710Z,5.17
2023-01-09T16:18:29.818Z,5.63
2023-01-09T16:21:31.777Z,5.70
2023-01-09T16:24:03.809Z,5.10
2023-01-09T16:26:32.926Z,3.93
2023-01-09T16:29:34.778Z,4.37
2023-01-09T16:32:05.262Z,3.77
2023-01-09T16:34:36.273Z,3.60
2023-01-09T16:37:06.522Z,4.63
2023-01-09T16:39:36.455Z,3.70
2023-01-09T16:42:28.000Z,3.83
2023-01-09T16:44:56.412Z,4.07
2023-01-09T16:47:24.962Z,4.80
2023-01-09T16:49:53.493Z,3.93
2023-01-09T16:52:21.851Z,4.20
2023-01-09T16:54:51.567Z,4.47
2023-01-09T16:57:20.116Z,4.60
2023-01-09T16:59:48.743Z,4.23
2023-01-09T17:02:20.012Z,3.53
2023-01-09T17:04:48.627Z,4.13
2023-01-09T17:07:18.524Z,3.73
2023-01-09T17:09:47.755Z,3.90
2023-01-09T17:12:20.132Z,3.63
2023-01-09T17:14:48.632Z,3.87
2023-01-09T17:17:17.916Z,3.80
2023-01-09T17:19:46.874Z,4.13
2023-01-09T17:22:15.690Z,4.73
2023-01-09T17:25:01.305Z,4.97
2023-01-09T17:27:51.882Z,4.30
2023-01-09T17:30:20.707Z,5.00
2023-01-09T17:32:49.246Z,5.00
2023-01-09T17:35:18.239Z,4.17
2023-01-09T17:37:46.647Z,4.40
2023-01-09T17:40:19.813Z,4.20
2023-01-09T17:42:49.745Z,4.87
2023-01-09T17:45:18.281Z,4.40
2023-01-09T17:47:46.684Z,4.63
2023-01-09T17:50:19.947Z,4.50
2023-01-09T17:52:48.901Z,5.13
2023-01-09T17:55:17.330Z,4.40
2023-01-09T17:57:46.141Z,5.90
2023-01-09T18:00:26.213Z,4.83
2023-01-09T18:02:54.763Z,5.30
2023-01-09T18:05:23.465Z,5.20
2023-01-09T18:07:52.328Z,5.33
2023-01-09T18:10:24.429Z,5.30
2023-01-09T18:12:54.115Z,5.93
2023-01-09T18:15:25.430Z,4.80
2023-01-09T18:17:53.981Z,5.37
2023-01-09T18:20:22.510Z,5.87
2023-01-09T18:22:51.730Z,6.13
2023-01-09T18:25:20.316Z,4.80
2023-01-09T18:27:48.639Z,5.73
2023-01-09T18:30:17.187Z,6.20
2023-01-09T18:32:47.005Z,6.23
2023-01-09T18:35:15.491Z,5.80
2023-01-09T18:37:43.915Z,9.93
2023-01-09T18:40:13.284Z,6.60
2023-01-09T18:42:42.134Z,5.67
2023-01-09T18:45:11.963Z,5.30
2023-01-09T18:47:40.657Z,5.80
2023-01-09T18:50:12.011Z,6.17
2023-01-09T18:52:40.674Z,8.87
2023-01-09T18:55:10.174Z,12.17
2023-01-09T18:57:38.695Z,8.30
2023-01-09T19:00:08.489Z,7.07
2023-01-09T19:02:37.605Z,7.27
2023-01-09T19:05:06.488Z,6.67
2023-01-09T19:07:36.296Z,7.23
2023-01-09T19:10:05.312Z,8.07
2023-01-09T19:12:33.966Z,7.00
2023-01-09T19:15:02.382Z,5.67
2023-01-09T19:17:31.364Z,7.80
2023-01-09T19:19:59.812Z,9.10
2023-01-09T19:22:28.269Z,7.27
2023-01-09T19:24:58.201Z,7.30
2023-01-09T19:27:26.495Z,8.03
2023-01-09T19:29:54.957Z,6.93
2023-01-09T19:32:23.441Z,6.53
2023-01-09T19:34:51.848Z,5.87
2023-01-09T19:37:20.480Z,6.77
2023-01-09T19:39:48.905Z,7.33
2023-01-09T19:42:19.441Z,8.13
2023-01-09T19:44:47.828Z,7.03
2023-01-09T19:47:16.256Z,7.50
2023-01-09T19:49:44.701Z,8.80
2023-01-09T19:52:13.150Z,7.00
2023-01-09T19:54:41.607Z,6.57
2023-01-09T19:57:10.150Z,7.07
2023-01-09T19:59:40.451Z,6.47
2023-01-09T20:02:10.873Z,8.57
2023-01-09T20:04:39.644Z,7.03
2023-01-09T20:07:08.250Z,7.57
2023-01-09T20:09:36.930Z,8.17
2023-01-09T20:12:06.360Z,7.10
2023-01-09T20:14:37.067Z,7.23
2023-01-09T20:17:06.921Z,7.33
2023-01-09T20:19:35.262Z,7.73
2023-01-09T20:22:03.534Z,8.10
2023-01-09T20:24:32.011Z,8.03
2023-01-09T20:27:00.699Z,6.97
2023-01-09T20:29:29.371Z,8.47
2023-01-09T20:31:57.912Z,8.23
2023-01-09T20:34:27.654Z,7.97
2023-01-09T20:36:55.997Z,7.03
2023-01-09T20:39:24.516Z,8.27
2023-01-09T20:41:53.350Z,7.77
2023-01-09T20:44:21.813Z,10.87
2023-01-09T20:46:53.412Z,9.53
2023-01-09T20:49:22.260Z,9.30
2023-01-09T20:51:53.289Z,9.60
2023-01-09T20:54:22.865Z,8.67
2023-01-09T20:56:51.308Z,8.43
2023-01-09T20:59:22.079Z,7.97
2023-01-09T21:01:50.815Z,8.57
2023-01-09T21:04:19.699Z,8.93
2023-01-09T21:06:50.063Z,7.50
2023-01-09T21:09:20.908Z,7.70
2023-01-09T21:11:49.505Z,7.13
2023-01-09T21:14:18.080Z,7.47
2023-01-09T21:16:54.249Z,7.20
2023-01-09T21:19:23.891Z,7.43
2023-01-09T21:21:53.534Z,7.97
2023-01-09T21:24:23.643Z,7.43
2023-01-09T21:26:52.001Z,7.27
2023-01-09T21:29:20.582Z,7.47
2023-01-09T21:31:49.094Z,7.60
2023-01-09T21:34:20.677Z,7.30
2023-01-09T21:36:49.246Z,7.60
2023-01-09T21:39:18.400Z,7.50
2023-01-09T21:42:05.728Z,8.13
2023-01-09T21:44:51.667Z,7.33
2023-01-09T21:47:20.336Z,7.23
2023-01-09T21:49:49.010Z,8.63
2023-01-09T21:52:18.692Z,7.90
2023-01-09T21:54:47.043Z,8.53
2023-01-09T21:57:17.066Z,9.00
2023-01-09T21:59:45.624Z,8.53
2023-01-09T22:02:15.880Z,10.30
2023-01-09T22:04:48.790Z,8.57
2023-01-09T22:07:17.365Z,8.83
2023-01-09T22:09:46.054Z,9.23
2023-01-09T22:12:14.550Z,9.17
2023-01-09T22:14:44.538Z,9.80
2023-01-09T22:17:13.010Z,9.07
2023-01-09T22:19:41.387Z,9.53
2023-01-09T22:22:09.756Z,9.53
2023-01-09T22:24:38.159Z,9.70
2023-01-09T22:27:07.142Z,8.97
2023-01-09T22:29:35.666Z,8.83
2023-01-09T22:32:05.998Z,8.80
2023-01-09T22:34:34.496Z,8.67
2023-01-09T22:37:03.293Z,8.13
2023-01-09T22:39:31.754Z,9.20
2023-01-09T22:42:00.098Z,8.27
2023-01-09T22:44:28.695Z,8.27
2023-01-09T22:46:58.365Z,8.27
2023-01-09T22:49:30.249Z,7.90
2023-01-09T22:52:01.931Z,7.77
2023-01-09T22:54:30.321Z,7.43
2023-01-09T22:56:58.805Z,7.90
2023-01-09T22:59:27.342Z,7.90
2023-01-09T23:01:57.904Z,7.10
2023-01-09T23:04:27.760Z,7.60
2023-01-09T23:06:56.171Z,8.07
2023-01-09T23:09:25.374Z,7.30
2023-01-09T23:12:06.743Z,8.27
2023-01-09T23:14:36.879Z,8.50
2023-01-09T23:17:05.559Z,8.17
2023-01-09T23:19:35.578Z,8.43
2023-01-09T23:22:04.884Z,8.77
2023-01-09T23:24:33.339Z,10.17
2023-01-09T23:27:02.062Z,10.30
2023-01-09T23:29:30.407Z,9.70
2023-01-09T23:31:59.116Z,9.97
2023-01-09T23:34:27.721Z,10.33
2023-01-09T23:36:58.241Z,10.43
2023-01-09T23:39:26.682Z,10.97
2023-01-09T23:42:12.907Z,10.77
2023-01-09T23:44:41.311Z,11.60
2023-01-09T23:47:09.745Z,12.67
2023-01-09T23:49:38.949Z,12.43
2023-01-09T23:52:08.856Z,12.47
2023-01-09T23:54:37.553Z,13.00
2023-01-09T23:57:05.933Z,12.67
2023-01-09T23:59:34.950Z,13.53
